Latest Coastal Weather Observations for Bedout Island

IDW60701

Issued at 5:05 pm WST Friday 25 April 2014 (issued every 10 minutes, with the page automatically refreshed every 10 minutes)

About coastal observations | Map of coastal stations | Coastal observations for WA | Marine services | Other Formats
Station Details ID: 004100 Name: BEDOUT ISLAND Lat: -19.59 Lon: 119.10 Height: 8.6 m
Data from the previous 72 hours. | See also: Recent months for locations in Western Australia
Date/Time
WST
Temp

°C
Wind Pressure Rain
since 9am
mm
Weather Cloud Vis
km
Sea
Height
m
Swell
Dir
 
Speed
knots
Gust
knots
hPa Trend Height
m
Period
s
Dir
25/05:00pm 29.8 NW 5 6 1008.4 - - - - - - - - -
25/04:30pm 30.9 NW 5 7 1008.1 - - - - - - - - -
25/04:00pm 31.6 NW 5 7 1008.2 - - - - - - - - -
25/03:30pm 32.5 NW 6 7 1008.0 - - - - - - - - -
25/03:00pm 31.9 N 5 7 1007.7 - - - - - - - - -
25/02:30pm 31.6 N 5 6 1008.0 - - - - - - - - -
25/02:00pm 32.4 N 5 6 1008.3 - - - - - - - - -
25/01:30pm 32.7 NNE 5 6 1008.5 - - - - - - - - -
25/01:00pm 32.4 ENE 4 5 1008.8 - - - - - - - - -
25/12:30pm 31.2 E 4 5 1009.2 - - - - - - - - -
25/12:00pm 31.7 NNW 4 5 1009.4 - - - - - - - - -
25/11:30am 32.0 NE 4 5 1009.8 - - - - - - - - -
25/11:00am 31.6 SSE 4 6 1010.2 - - - - - - - - -
25/10:30am 31.3 E 4 5 1010.4 - - - - - - - - -
25/10:00am 30.9 E 5 6 1010.5 - - - - - - - - -
25/09:30am 30.5 ENE 4 6 1010.8 - - - - - - - - -
25/09:00am 29.8 ENE 4 6 1010.7 - - - - - - - - -
25/08:30am 29.5 E 4 5 1010.7 - - - - - - - - -
25/08:00am 28.6 ENE 4 5 1010.5 - - - - - - - - -
25/07:30am 28.1 S 3 4 1010.3 - - - - - - - - -
25/07:00am 27.2 S 5 6 1010.1 - - - - - - - - -
25/06:30am 26.3 S 5 7 1009.9 - - - - - - - - -
25/06:00am 26.7 SSW 7 8 1009.5 - - - - - - - - -
25/05:30am 26.4 SW 7 8 1009.3 - - - - - - - - -
25/05:00am 26.6 SW 6 7 1009.2 - - - - - - - - -
25/04:30am 26.9 SSW 8 9 1009.1 - - - - - - - - -
25/04:00am 27.2 SSW 9 10 1008.9 - - - - - - - - -
25/03:30am 27.3 SSW 10 11 1009.0 - - - - - - - - -
25/03:00am 27.4 SSW 10 11 1008.9 - - - - - - - - -
25/02:30am 27.5 SW 11 12 1008.9 - - - - - - - - -
25/02:00am 27.5 SW 10 11 1008.9 - - - - - - - - -
25/01:30am 27.6 SW 11 12 1009.1 - - - - - - - - -
25/01:00am 27.6 SW 11 13 1009.1 - - - - - - - - -
25/12:30am 27.6 SW 11 12 1009.1 - - - - - - - - -
25/12:00am 27.7 SW 11 13 1009.1 - - - - - - - - -
 
Date/Time
WST
Temp

°C
Wind Pressure Rain
since 9am
mm
Weather Cloud Vis
km
Sea
Height
m
Swell
Dir
 
Speed
knots
Gust
knots
hPa Trend Height
m
Period
s
Dir
24/11:30pm 27.9 SW 12 14 1009.5 - - - - - - - - -
24/11:00pm 27.8 WSW 11 12 1009.5 - - - - - - - - -
24/10:30pm 27.8 WSW 11 12 1009.9 - - - - - - - - -
24/10:00pm 27.7 WSW 10 11 1010.1 - - - - - - - - -
24/09:30pm 27.5 W 8 9 1010.1 - - - - - - - - -
24/09:00pm 27.6 WSW 9 10 1010.2 - - - - - - - - -
24/08:30pm 27.6 WSW 8 10 1010.3 - - - - - - - - -
24/08:00pm 27.7 WSW 9 10 1010.1 - - - - - - - - -
24/07:30pm 27.5 WSW 7 7 1009.8 - - - - - - - - -
24/07:00pm 27.6 WSW 7 8 1009.3 - - - - - - - - -
24/06:30pm 27.7 WSW 5 7 1009.0 - - - - - - - - -
24/06:00pm 28.0 WSW 6 7 1008.4 - - - - - - - - -
24/05:30pm 29.2 W 6 7 1008.3 - - - - - - - - -
24/05:00pm 30.3 W 6 7 1008.2 - - - - - - - - -
24/04:30pm 31.1 W 6 8 1007.9 - - - - - - - - -
24/04:00pm 31.3 W 6 7 1007.8 - - - - - - - - -
24/03:30pm 32.3 W 5 6 1007.8 - - - - - - - - -
24/03:00pm 31.8 W 6 7 1007.8 - - - - - - - - -
24/02:30pm 31.7 WSW 5 6 1008.1 - - - - - - - - -
24/02:00pm 32.0 WSW 5 6 1008.3 - - - - - - - - -
24/01:30pm 32.8 WSW 5 6 1008.8 - - - - - - - - -
24/01:00pm 32.9 SW 6 7 1009.0 - - - - - - - - -
24/12:30pm 31.8 SW 6 7 1009.3 - - - - - - - - -
24/12:00pm 31.9 SW 7 8 1009.5 - - - - - - - - -
24/11:30am 32.3 WSW 8 9 1009.9 - - - - - - - - -
24/10:30am 32.0 SW 9 11 1010.7 - - - - - - - - -
24/10:00am 31.4 WSW 8 10 1011.1 - - - - - - - - -
24/09:30am 30.7 SW 9 10 1011.2 - - - - - - - - -
24/09:00am 30.4 WSW 8 10 1011.2 - - - - - - - - -
24/08:30am 29.5 WSW 9 10 1011.0 - - - - - - - - -
24/08:00am 28.9 WSW 7 9 1010.8 - - - - - - - - -
24/07:30am 27.6 S 6 7 1010.6 - - - - - - - - -
24/07:00am 26.3 SSE 7 8 1010.3 - - - - - - - - -
24/06:30am 25.3 S 9 10 1009.9 - - - - - - - - -
24/06:00am 25.1 S 9 11 1009.5 - - - - - - - - -
24/05:30am 25.6 S 10 12 1009.5 - - - - - - - - -
24/05:00am 25.7 S 10 12 1009.4 - - - - - - - - -
24/04:30am 25.8 S 10 11 1009.3 - - - - - - - - -
24/04:00am 25.7 S 7 9 1009.2 - - - - - - - - -
24/03:30am 26.0 S 7 8 1009.2 - - - - - - - - -
24/03:00am 26.4 S 7 8 1009.1 - - - - - - - - -
24/02:30am 26.5 S 9 10 1009.3 - - - - - - - - -
24/02:00am 26.5 S 9 10 1009.5 - - - - - - - - -
24/01:30am 26.6 SSW 8 9 1009.8 - - - - - - - - -
24/01:00am 26.7 SW 8 9 1010.0 - - - - - - - - -
24/12:30am 26.6 SW 7 8 1010.1 - - - - - - - - -
24/12:00am 26.9 SW 7 9 1010.3 - - - - - - - - -
 
Date/Time
WST
Temp

°C
Wind Pressure Rain
since 9am
mm
Weather Cloud Vis
km
Sea
Height
m
Swell
Dir
 
Speed
knots
Gust
knots
hPa Trend Height
m
Period
s
Dir
23/11:30pm 26.9 SW 7 8 1010.6 - - - - - - - - -
23/11:00pm 27.2 WSW 8 10 1010.8 - - - - - - - - -
23/10:30pm 27.6 WSW 10 11 1010.9 - - - - - - - - -
23/10:00pm 27.7 W 9 10 1010.9 - - - - - - - - -
23/09:30pm 27.8 W 10 11 1010.8 - - - - - - - - -
23/09:00pm 28.0 W 12 13 1010.9 - - - - - - - - -
23/08:30pm 28.0 W 11 12 1011.0 - - - - - - - - -
23/08:00pm 28.0 W 11 12 1010.7 - - - - - - - - -
23/07:30pm 28.1 W 10 11 1010.4 - - - - - - - - -
23/07:00pm 28.3 W 11 12 1010.3 - - - - - - - - -
23/06:30pm 28.2 W 8 9 1010.3 - - - - - - - - -
23/06:00pm 28.4 W 8 9 1010.1 - - - - - - - - -
23/05:30pm 29.3 WSW 8 8 1009.9 - - - - - - - - -
23/05:00pm 30.5 W 7 9 1009.5 - - - - - - - - -
23/04:30pm 31.1 W 8 9 1009.2 - - - - - - - - -
23/04:00pm 31.6 W 8 9 1009.1 - - - - - - - - -
23/03:30pm 31.9 W 8 9 1008.9 - - - - - - - - -
23/03:00pm 32.2 W 8 10 1008.9 - - - - - - - - -
23/02:30pm 33.0 WSW 9 10 1009.1 - - - - - - - - -
23/02:00pm 32.5 W 8 10 1009.3 - - - - - - - - -
23/01:30pm 32.5 W 8 9 1009.6 - - - - - - - - -
23/01:00pm 32.0 W 8 9 1010.0 - - - - - - - - -
23/12:30pm 32.8 W 9 10 1010.4 - - - - - - - - -
23/12:00pm 31.9 W 8 9 1010.8 - - - - - - - - -
23/11:30am 30.9 WSW 7 8 1011.3 - - - - - - - - -
23/11:00am 30.1 WSW 6 7 1011.7 - - - - - - - - -
23/10:30am 29.0 WSW 5 6 1012.2 - - - - - - - - -
23/10:00am 28.8 SW 5 6 1012.6 - - - - - - - - -
23/09:30am 28.3 S 6 8 1012.7 - - - - - - - - -
23/09:00am 28.3 SSE 7 9 1012.6 - - - - - - - - -
23/08:30am 27.5 SSE 7 8 1012.7 - - - - - - - - -
23/08:00am 27.0 SSE 10 12 1012.6 - - - - - - - - -
23/07:30am 26.9 S 10 12 1012.3 - - - - - - - - -
23/07:00am 26.3 SSW 11 13 1011.8 - - - - - - - - -
23/06:30am 26.3 S 9 11 1011.5 - - - - - - - - -
23/06:00am 26.1 SSW 8 10 1011.2 - - - - - - - - -
23/05:30am 26.1 S 8 9 1010.9 - - - - - - - - -
23/05:00am 26.6 S 9 11 1010.9 - - - - - - - - -
23/04:30am 26.9 SSW 11 13 1010.9 - - - - - - - - -
23/04:00am 27.0 SSW 11 12 1010.9 - - - - - - - - -
23/03:30am 26.9 SW 9 11 1010.9 - - - - - - - - -
23/03:00am 27.0 SW 10 11 1010.8 - - - - - - - - -
23/02:30am 26.9 SW 9 10 1010.9 - - - - - - - - -
23/02:00am 27.0 SW 10 11 1011.2 - - - - - - - - -
23/01:30am 27.2 SW 11 13 1011.4 - - - - - - - - -
23/01:00am 27.2 SW 11 12 1011.7 - - - - - - - - -
23/12:30am 27.2 WSW 11 12 1012.0 - - - - - - - - -
23/12:00am 27.3 WSW 11 12 1012.1 - - - - - - - - -
 
Date/Time
WST
Temp

°C
Wind Pressure Rain
since 9am
mm
Weather Cloud Vis
km
Sea
Height
m
Swell
Dir
 
Speed
knots
Gust
knots
hPa Trend Height
m
Period
s
Dir
22/11:30pm 27.2 WSW 11 12 1012.3 - - - - - - - - -
22/11:00pm 27.2 W 10 12 1012.4 - - - - - - - - -
22/10:30pm 27.1 W 11 13 1012.5 - - - - - - - - -
22/10:00pm 27.4 W 11 12 1012.4 - - - - - - - - -
22/09:30pm 27.6 W 11 13 1012.4 - - - - - - - - -
22/09:00pm 27.7 W 12 13 1012.2 - - - - - - - - -
22/08:30pm 27.9 W 11 12 1012.1 - - - - - - - - -
22/08:00pm 28.0 W 11 12 1011.9 - - - - - - - - -
22/07:30pm 28.1 WNW 11 12 1011.6 - - - - - - - - -
22/07:00pm 28.1 W 11 12 1011.3 - - - - - - - - -
22/06:30pm 28.4 W 12 13 1011.1 - - - - - - - - -
22/06:00pm 28.4 W 11 12 1011.0 - - - - - - - - -
22/05:30pm 29.2 WNW 10 11 1011.0 - - - - - - - - -

Other Formats:

Comma delimited format used in spreadsheet applications
http://www.bom.gov.au/fwo/IDW60701/IDW60701.94310.axf

JavaScript Object Notation format (JSON) in row-major order
http://www.bom.gov.au/fwo/IDW60701/IDW60701.94310.json